sensor_id;sensor_type;location;lat;lon;timestamp;pressure;altitude;pressure_sealevel;temperature;humidity
69842;BME280;57138;51.326;-0.068;2023-04-24T00:02:02;98729.91;;;7.71;92.14
69842;BME280;57138;51.326;-0.068;2023-04-24T00:04:29;98742.81;;;7.74;91.89
69842;BME280;57138;51.326;-0.068;2023-04-24T00:06:55;98745.69;;;7.73;92.25
69842;BME280;57138;51.326;-0.068;2023-04-24T00:09:22;98739.72;;;7.71;90.27
69842;BME280;57138;51.326;-0.068;2023-04-24T00:11:48;98736.88;;;7.66;91.73
69842;BME280;57138;51.326;-0.068;2023-04-24T00:14:13;98737.88;;;7.65;91.47
69842;BME280;57138;51.326;-0.068;2023-04-24T00:16:39;98749.16;;;7.67;91.21
69842;BME280;57138;51.326;-0.068;2023-04-24T00:19:04;98746.28;;;7.62;91.44
69842;BME280;57138;51.326;-0.068;2023-04-24T00:21:31;98762.88;;;7.64;91.95
69842;BME280;57138;51.326;-0.068;2023-04-24T00:23:58;98745.88;;;7.51;91.38
69842;BME280;57138;51.326;-0.068;2023-04-24T00:26:23;98750.78;;;7.54;91.46
69842;BME280;57138;51.326;-0.068;2023-04-24T00:28:49;98764.28;;;7.53;91.34
69842;BME280;57138;51.326;-0.068;2023-04-24T00:31:14;98765.91;;;7.47;91.80
69842;BME280;57138;51.326;-0.068;2023-04-24T00:33:40;98767.78;;;7.47;91.22
69842;BME280;57138;51.326;-0.068;2023-04-24T00:36:06;98770.63;;;7.45;91.67
69842;BME280;57138;51.326;-0.068;2023-04-24T00:38:32;98761.81;;;7.38;92.04
69842;BME280;57138;51.326;-0.068;2023-04-24T00:40:57;98770.63;;;7.45;90.02
69842;BME280;57138;51.326;-0.068;2023-04-24T00:43:23;98766.34;;;7.37;91.80
69842;BME280;57138;51.326;-0.068;2023-04-24T00:45:48;98779.44;;;7.46;92.72
69842;BME280;57138;51.326;-0.068;2023-04-24T00:48:14;98785.56;;;7.46;91.97
69842;BME280;57138;51.326;-0.068;2023-04-24T00:50:40;98783.53;;;7.48;91.26
69842;BME280;57138;51.326;-0.068;2023-04-24T00:53:05;98783.72;;;7.47;92.08
69842;BME280;57138;51.326;-0.068;2023-04-24T00:55:31;98788.00;;;7.48;92.39
69842;BME280;57138;51.326;-0.068;2023-04-24T00:57:57;98787.19;;;7.47;92.31
69842;BME280;57138;51.326;-0.068;2023-04-24T01:00:23;98779.84;;;7.43;92.56
69842;BME280;57138;51.326;-0.068;2023-04-24T01:02:49;98788.00;;;7.48;89.99
69842;BME280;57138;51.326;-0.068;2023-04-24T01:05:16;98792.53;;;7.47;92.75
69842;BME280;57138;51.326;-0.068;2023-04-24T01:07:44;98800.28;;;7.49;92.04
69842;BME280;57138;51.326;-0.068;2023-04-24T01:10:11;98795.78;;;7.49;92.21
69842;BME280;57138;51.326;-0.068;2023-04-24T01:12:38;98793.94;;;7.43;91.74
69842;BME280;57138;51.326;-0.068;2023-04-24T01:15:07;98803.75;;;7.49;92.53
69842;BME280;57138;51.326;-0.068;2023-04-24T01:17:33;98807.06;;;7.51;92.86
69842;BME280;57138;51.326;-0.068;2023-04-24T01:19:59;98798.66;;;7.48;93.17
69842;BME280;57138;51.326;-0.068;2023-04-24T01:22:25;98804.00;;;7.54;92.91
69842;BME280;57138;51.326;-0.068;2023-04-24T01:24:52;98799.69;;;7.53;91.77
69842;BME280;57138;51.326;-0.068;2023-04-24T01:27:18;98803.59;;;7.58;91.80
69842;BME280;57138;51.326;-0.068;2023-04-24T01:29:44;98797.03;;;7.53;91.85
69842;BME280;57138;51.326;-0.068;2023-04-24T01:32:10;98804.19;;;7.60;92.16
69842;BME280;57138;51.326;-0.068;2023-04-24T01:34:37;98808.69;;;7.59;92.66
69842;BME280;57138;51.326;-0.068;2023-04-24T01:37:02;98797.03;;;7.53;92.65
69842;BME280;57138;51.326;-0.068;2023-04-24T01:39:27;98803.59;;;7.58;91.68
69842;BME280;57138;51.326;-0.068;2023-04-24T01:41:54;98805.84;;;7.61;92.02
69842;BME280;57138;51.326;-0.068;2023-04-24T01:44:20;98793.97;;;7.56;92.29
69842;BME280;57138;51.326;-0.068;2023-04-24T01:46:46;98812.97;;;7.60;92.93
69842;BME280;57138;51.326;-0.068;2023-04-24T01:49:11;98804.00;;;7.54;92.88
69842;BME280;57138;51.326;-0.068;2023-04-24T01:51:37;98810.53;;;7.59;92.55
69842;BME280;57138;51.326;-0.068;2023-04-24T01:54:03;98817.09;;;7.56;90.97
69842;BME280;57138;51.326;-0.068;2023-04-24T01:56:29;98817.50;;;7.60;89.76
69842;BME280;57138;51.326;-0.068;2023-04-24T01:58:56;98826.28;;;7.53;91.59
69842;BME280;57138;51.326;-0.068;2023-04-24T02:01:23;98824.03;;;7.50;92.26
69842;BME280;57138;51.326;-0.068;2023-04-24T02:03:49;98834.25;;;7.47;92.68
69842;BME280;57138;51.326;-0.068;2023-04-24T02:06:14;98832.22;;;7.49;92.74
69842;BME280;57138;51.326;-0.068;2023-04-24T02:08:40;98835.06;;;7.47;91.05
69842;BME280;57138;51.326;-0.068;2023-04-24T02:11:06;98831.81;;;7.45;91.15
69842;BME280;57138;51.326;-0.068;2023-04-24T02:13:31;98829.75;;;7.41;91.49
69842;BME280;57138;51.326;-0.068;2023-04-24T02:15:58;98829.34;;;7.37;91.71
69842;BME280;57138;51.326;-0.068;2023-04-24T02:18:23;98832.59;;;7.39;92.11
69842;BME280;57138;51.326;-0.068;2023-04-24T02:20:49;98828.50;;;7.36;92.30
69842;BME280;57138;51.326;-0.068;2023-04-24T02:23:14;98833.41;;;7.33;92.97
69842;BME280;57138;51.326;-0.068;2023-04-24T02:25:40;98823.19;;;7.23;93.08
69842;BME280;57138;51.326;-0.068;2023-04-24T02:28:05;98830.09;;;7.24;93.07
69842;BME280;57138;51.326;-0.068;2023-04-24T02:30:31;98838.94;;;7.25;93.00
69842;BME280;57138;51.326;-0.068;2023-04-24T02:32:57;98846.69;;;7.26;92.81
69842;BME280;57138;51.326;-0.068;2023-04-24T02:35:22;98852.63;;;7.22;92.80
69842;BME280;57138;51.326;-0.068;2023-04-24T02:37:48;98853.03;;;7.18;93.16
69842;BME280;57138;51.326;-0.068;2023-04-24T02:40:13;98861.41;;;7.22;93.79
69842;BME280;57138;51.326;-0.068;2023-04-24T02:42:39;98863.66;;;7.18;93.34
69842;BME280;57138;51.326;-0.068;2023-04-24T02:45:05;98868.56;;;7.22;93.77
69842;BME280;57138;51.326;-0.068;2023-04-24T02:47:31;98869.38;;;7.22;93.68
69842;BME280;57138;51.326;-0.068;2023-04-24T02:49:57;98865.47;;;7.18;93.16
69842;BME280;57138;51.326;-0.068;2023-04-24T02:52:23;98873.44;;;7.18;93.46
69842;BME280;57138;51.326;-0.068;2023-04-24T02:54:48;98870.97;;;7.16;93.07
69842;BME280;57138;51.326;-0.068;2023-04-24T02:57:14;98878.34;;;7.14;92.43
69842;BME280;57138;51.326;-0.068;2023-04-24T02:59:40;98884.06;;;7.11;92.71
69842;BME280;57138;51.326;-0.068;2023-04-24T03:02:05;98865.63;;;7.03;93.36
69842;BME280;57138;51.326;-0.068;2023-04-24T03:04:31;98884.47;;;7.08;93.31
69842;BME280;57138;51.326;-0.068;2023-04-24T03:06:57;98882.81;;;7.07;92.92
69842;BME280;57138;51.326;-0.068;2023-04-24T03:09:22;98885.28;;;7.09;92.83
69842;BME280;57138;51.326;-0.068;2023-04-24T03:11:48;98886.50;;;7.06;93.32
69842;BME280;57138;51.326;-0.068;2023-04-24T03:14:14;98877.09;;;7.04;92.91
69842;BME280;57138;51.326;-0.068;2023-04-24T03:16:40;98895.09;;;7.08;93.54
69842;BME280;57138;51.326;-0.068;2023-04-24T03:19:05;98893.84;;;7.04;93.50
69842;BME280;57138;51.326;-0.068;2023-04-24T03:21:31;98889.78;;;7.08;93.66
69842;BME280;57138;51.326;-0.068;2023-04-24T03:23:56;98892.63;;;7.07;93.58
69842;BME280;57138;51.326;-0.068;2023-04-24T03:26:21;98901.22;;;7.09;93.83
69842;BME280;57138;51.326;-0.068;2023-04-24T03:28:47;98896.28;;;7.06;93.55
69842;BME280;57138;51.326;-0.068;2023-04-24T03:31:12;98906.13;;;7.05;93.75
69842;BME280;57138;51.326;-0.068;2023-04-24T03:33:38;98904.47;;;7.04;93.34
69842;BME280;57138;51.326;-0.068;2023-04-24T03:36:03;98896.28;;;6.99;94.21
69842;BME280;57138;51.326;-0.068;2023-04-24T03:38:30;98905.31;;;7.05;92.85
69842;BME280;57138;51.326;-0.068;2023-04-24T03:40:55;98910.81;;;7.03;92.83
69842;BME280;57138;51.326;-0.068;2023-04-24T03:43:21;98911.41;;;6.98;93.16
69842;BME280;57138;51.326;-0.068;2023-04-24T03:45:46;98918.34;;;6.99;93.17
69842;BME280;57138;51.326;-0.068;2023-04-24T03:48:12;98913.00;;;6.93;91.92
69842;BME280;57138;51.326;-0.068;2023-04-24T03:50:37;98924.25;;;6.95;93.55
69842;BME280;57138;51.326;-0.068;2023-04-24T03:53:03;98922.38;;;6.89;93.22
69842;BME280;57138;51.326;-0.068;2023-04-24T03:55:28;98924.41;;;6.87;93.52
69842;BME280;57138;51.326;-0.068;2023-04-24T03:58:00;98934.25;;;6.93;93.19
69842;BME280;57138;51.326;-0.068;2023-04-24T04:00:26;98926.84;;;6.81;93.28
69842;BME280;57138;51.326;-0.068;2023-04-24T04:02:54;98931.38;;;6.88;93.19
69842;BME280;57138;51.326;-0.068;2023-04-24T04:05:20;98933.00;;;6.89;92.34
69842;BME280;57138;51.326;-0.068;2023-04-24T04:07:45;98946.91;;;6.84;93.88
69842;BME280;57138;51.326;-0.068;2023-04-24T04:10:11;98932.94;;;6.75;93.47
69842;BME280;57138;51.326;-0.068;2023-04-24T04:12:36;98942.38;;;6.78;93.41
69842;BME280;57138;51.326;-0.068;2023-04-24T04:15:02;98952.63;;;6.81;93.95
69842;BME280;57138;51.326;-0.068;2023-04-24T04:17:28;98953.81;;;6.78;93.52
69842;BME280;57138;51.326;-0.068;2023-04-24T04:19:53;98943.97;;;6.72;94.18
69842;BME280;57138;51.326;-0.068;2023-04-24T04:22:18;98956.28;;;6.80;93.81
69842;BME280;57138;51.326;-0.068;2023-04-24T04:24:44;98952.75;;;6.73;93.91
69842;BME280;57138;51.326;-0.068;2023-04-24T04:27:09;98948.88;;;6.75;94.52
69842;BME280;57138;51.326;-0.068;2023-04-24T04:29:36;98956.63;;;6.70;94.12
69842;BME280;57138;51.326;-0.068;2023-04-24T04:32:02;98969.75;;;6.78;93.47
69842;BME280;57138;51.326;-0.068;2023-04-24T04:34:27;98970.13;;;6.75;94.04
69842;BME280;57138;51.326;-0.068;2023-04-24T04:36:53;98976.06;;;6.77;93.85
69842;BME280;57138;51.326;-0.068;2023-04-24T04:39:18;98975.06;;;6.78;93.83
69842;BME280;57138;51.326;-0.068;2023-04-24T04:41:44;98977.91;;;6.77;94.15
69842;BME280;57138;51.326;-0.068;2023-04-24T04:44:14;98985.66;;;6.72;92.68
69842;BME280;57138;51.326;-0.068;2023-04-24T04:46:40;98982.34;;;6.70;93.62
69842;BME280;57138;51.326;-0.068;2023-04-24T04:49:06;98988.50;;;6.70;93.55
69842;BME280;57138;51.326;-0.068;2023-04-24T04:51:34;98992.59;;;6.73;93.68
69842;BME280;57138;51.326;-0.068;2023-04-24T04:53:59;98991.78;;;6.72;93.41
69842;BME280;57138;51.326;-0.068;2023-04-24T04:56:25;99004.06;;;6.73;93.41
69842;BME280;57138;51.326;-0.068;2023-04-24T04:58:50;99000.13;;;6.69;93.15
69842;BME280;57138;51.326;-0.068;2023-04-24T05:01:16;98999.72;;;6.65;94.02
69842;BME280;57138;51.326;-0.068;2023-04-24T05:03:42;99000.53;;;6.66;93.68
69842;BME280;57138;51.326;-0.068;2023-04-24T05:06:07;99005.22;;;6.64;94.06
69842;BME280;57138;51.326;-0.068;2023-04-24T05:08:33;99007.88;;;6.64;93.47
69842;BME280;57138;51.326;-0.068;2023-04-24T05:10:58;99008.88;;;6.63;93.64
69842;BME280;57138;51.326;-0.068;2023-04-24T05:13:24;99019.31;;;6.64;93.62
69842;BME280;57138;51.326;-0.068;2023-04-24T05:15:49;99017.06;;;6.68;93.24
69842;BME280;57138;51.326;-0.068;2023-04-24T05:18:15;99022.56;;;6.66;94.17
69842;BME280;57138;51.326;-0.068;2023-04-24T05:20:41;99022.38;;;6.68;94.31
69842;BME280;57138;51.326;-0.068;2023-04-24T05:23:09;99018.09;;;6.67;94.84
69842;BME280;57138;51.326;-0.068;2023-04-24T05:25:34;99022.00;;;6.71;92.94
69842;BME280;57138;51.326;-0.068;2023-04-24T05:28:01;99022.38;;;6.68;93.65
69842;BME280;57138;51.326;-0.068;2023-04-24T05:30:27;99030.81;;;6.72;94.25
69842;BME280;57138;51.326;-0.068;2023-04-24T05:32:52;99036.13;;;6.72;94.29
69842;BME280;57138;51.326;-0.068;2023-04-24T05:35:18;99029.16;;;6.71;94.36
69842;BME280;57138;51.326;-0.068;2023-04-24T05:37:44;99035.53;;;6.76;95.09
69842;BME280;57138;51.326;-0.068;2023-04-24T05:40:10;99033.09;;;6.75;93.66
69842;BME280;57138;51.326;-0.068;2023-04-24T05:42:35;99035.53;;;6.76;94.72
69842;BME280;57138;51.326;-0.068;2023-04-24T05:45:01;99042.94;;;6.81;94.34
69842;BME280;57138;51.326;-0.068;2023-04-24T05:47:26;99042.09;;;6.80;95.07
69842;BME280;57138;51.326;-0.068;2023-04-24T05:49:52;99046.44;;;6.88;94.72
69842;BME280;57138;51.326;-0.068;2023-04-24T05:52:18;99049.91;;;6.89;94.10
69842;BME280;57138;51.326;-0.068;2023-04-24T05:54:44;99054.66;;;6.93;95.20
69842;BME280;57138;51.326;-0.068;2023-04-24T05:57:09;99061.03;;;6.99;94.54
69842;BME280;57138;51.326;-0.068;2023-04-24T05:59:37;99055.72;;;6.99;94.83
69842;BME280;57138;51.326;-0.068;2023-04-24T06:02:03;99057.22;;;7.08;93.41
69842;BME280;57138;51.326;-0.068;2023-04-24T06:04:29;99050.91;;;7.09;94.57
69842;BME280;57138;51.326;-0.068;2023-04-24T06:06:55;99054.38;;;7.10;93.76
69842;BME280;57138;51.326;-0.068;2023-04-24T06:09:25;99056.84;;;7.11;94.08
69842;BME280;57138;51.326;-0.068;2023-04-24T06:11:51;99063.59;;;7.14;94.18
69842;BME280;57138;51.326;-0.068;2023-04-24T06:14:18;99075.47;;;7.18;93.62
69842;BME280;57138;51.326;-0.068;2023-04-24T06:16:45;99068.72;;;7.15;93.41
69842;BME280;57138;51.326;-0.068;2023-04-24T06:19:10;99068.53;;;7.17;93.87
69842;BME280;57138;51.326;-0.068;2023-04-24T06:21:37;99078.78;;;7.20;93.30
69842;BME280;57138;51.326;-0.068;2023-04-24T06:24:02;99081.25;;;7.22;93.30
69842;BME280;57138;51.326;-0.068;2023-04-24T06:26:29;99076.53;;;7.24;94.00
69842;BME280;57138;51.326;-0.068;2023-04-24T06:28:55;99073.88;;;7.24;94.25
69842;BME280;57138;51.326;-0.068;2023-04-24T06:31:20;99084.13;;;7.27;93.95
69842;BME280;57138;51.326;-0.068;2023-04-24T06:33:46;99085.78;;;7.28;93.97
69842;BME280;57138;51.326;-0.068;2023-04-24T06:36:12;99092.72;;;7.29;93.11
69842;BME280;57138;51.326;-0.068;2023-04-24T06:38:37;99100.50;;;7.30;93.23
69842;BME280;57138;51.326;-0.068;2023-04-24T06:41:03;99096.41;;;7.28;93.84
69842;BME280;57138;51.326;-0.068;2023-04-24T06:43:30;99082.06;;;7.22;93.66
69842;BME280;57138;51.326;-0.068;2023-04-24T06:45:57;99099.31;;;7.33;94.16
69842;BME280;57138;51.326;-0.068;2023-04-24T06:48:24;99094.81;;;7.33;93.21
69842;BME280;57138;51.326;-0.068;2023-04-24T06:50:50;99094.41;;;7.36;93.40
69842;BME280;57138;51.326;-0.068;2023-04-24T06:53:15;99089.94;;;7.37;92.85
69842;BME280;57138;51.326;-0.068;2023-04-24T06:55:41;99094.44;;;7.43;93.39
69842;BME280;57138;51.326;-0.068;2023-04-24T06:58:08;99100.63;;;7.50;94.47
69842;BME280;57138;51.326;-0.068;2023-04-24T07:00:34;99098.19;;;7.55;93.93
69842;BME280;57138;51.326;-0.068;2023-04-24T07:02:59;99091.47;;;7.60;92.64
69842;BME280;57138;51.326;-0.068;2023-04-24T07:05:25;99096.22;;;7.64;92.64
69842;BME280;57138;51.326;-0.068;2023-04-24T07:07:50;99092.16;;;7.68;92.53
69842;BME280;57138;51.326;-0.068;2023-04-24T07:10:16;99086.44;;;7.78;92.52
69842;BME280;57138;51.326;-0.068;2023-04-24T07:12:42;99088.13;;;7.92;91.54
69842;BME280;57138;51.326;-0.068;2023-04-24T07:15:10;99085.09;;;8.02;92.61
69842;BME280;57138;51.326;-0.068;2023-04-24T07:17:36;99093.53;;;8.19;92.26
69842;BME280;57138;51.326;-0.068;2023-04-24T07:20:04;99097.66;;;8.28;92.42
69842;BME280;57138;51.326;-0.068;2023-04-24T07:22:30;99095.66;;;8.31;92.43
69842;BME280;57138;51.326;-0.068;2023-04-24T07:24:55;99090.53;;;8.29;92.01
69842;BME280;57138;51.326;-0.068;2023-04-24T07:27:21;99089.47;;;8.23;92.32
69842;BME280;57138;51.326;-0.068;2023-04-24T07:29:46;99091.94;;;8.25;91.16
69842;BME280;57138;51.326;-0.068;2023-04-24T07:32:12;99093.16;;;8.22;91.35
69842;BME280;57138;51.326;-0.068;2023-04-24T07:34:37;99088.22;;;8.19;91.46
69842;BME280;57138;51.326;-0.068;2023-04-24T07:37:02;99098.06;;;8.12;91.48
69842;BME280;57138;51.326;-0.068;2023-04-24T07:39:28;99112.78;;;8.15;91.21
69842;BME280;57138;51.326;-0.068;2023-04-24T07:41:55;99107.09;;;8.24;90.94
69842;BME280;57138;51.326;-0.068;2023-04-24T07:44:21;99108.00;;;8.45;91.00
69842;BME280;57138;51.326;-0.068;2023-04-24T07:46:47;99114.16;;;8.66;89.97
69842;BME280;57138;51.326;-0.068;2023-04-24T07:49:12;99101.06;;;8.84;88.98
69842;BME280;57138;51.326;-0.068;2023-04-24T07:51:38;99107.22;;;9.05;87.14
69842;BME280;57138;51.326;-0.068;2023-04-24T07:54:04;99114.16;;;9.19;85.45
69842;BME280;57138;51.326;-0.068;2023-04-24T07:56:33;99117.44;;;9.34;86.01
69842;BME280;57138;51.326;-0.068;2023-04-24T07:58:59;99107.16;;;9.51;84.06
69842;BME280;57138;51.326;-0.068;2023-04-24T08:01:25;99117.34;;;9.75;85.34
69842;BME280;57138;51.326;-0.068;2023-04-24T08:03:50;99118.50;;;9.92;84.42
69842;BME280;57138;51.326;-0.068;2023-04-24T08:06:16;99118.50;;;9.92;82.14
69842;BME280;57138;51.326;-0.068;2023-04-24T08:08:42;99120.97;;;9.94;84.38
69842;BME280;57138;51.326;-0.068;2023-04-24T08:11:07;99119.72;;;10.03;84.44
69842;BME280;57138;51.326;-0.068;2023-04-24T08:13:33;99126.06;;;10.02;84.75
69842;BME280;57138;51.326;-0.068;2023-04-24T08:15:58;99123.00;;;9.98;85.09
69842;BME280;57138;51.326;-0.068;2023-04-24T08:18:24;99122.25;;;9.91;85.45
69842;BME280;57138;51.326;-0.068;2023-04-24T08:20:50;99125.13;;;9.83;85.38
69842;BME280;57138;51.326;-0.068;2023-04-24T08:23:15;99136.25;;;9.73;85.07
69842;BME280;57138;51.326;-0.068;2023-04-24T08:25:41;99132.97;;;9.64;86.04
69842;BME280;57138;51.326;-0.068;2023-04-24T08:28:08;99123.31;;;9.70;86.45
69842;BME280;57138;51.326;-0.068;2023-04-24T08:30:35;99125.94;;;9.90;83.93
69842;BME280;57138;51.326;-0.068;2023-04-24T08:33:00;99122.97;;;10.12;83.44
69842;BME280;57138;51.326;-0.068;2023-04-24T08:35:26;99125.75;;;10.30;83.68
69842;BME280;57138;51.326;-0.068;2023-04-24T08:37:52;99136.00;;;10.40;82.11
69842;BME280;57138;51.326;-0.068;2023-04-24T08:40:26;99132.31;;;10.41;81.27
69842;BME280;57138;51.326;-0.068;2023-04-24T08:42:54;99140.53;;;10.39;79.08
69842;BME280;57138;51.326;-0.068;2023-04-24T08:45:21;99131.31;;;10.29;79.73
69842;BME280;57138;51.326;-0.068;2023-04-24T08:47:47;99146.56;;;10.21;80.24
69842;BME280;57138;51.326;-0.068;2023-04-24T08:50:14;99147.22;;;10.10;80.68
69842;BME280;57138;51.326;-0.068;2023-04-24T08:52:41;99148.03;;;10.11;81.72
69842;BME280;57138;51.326;-0.068;2023-04-24T08:55:08;99147.56;;;10.27;82.08
69842;BME280;57138;51.326;-0.068;2023-04-24T08:57:34;99144.25;;;10.25;80.13
69842;BME280;57138;51.326;-0.068;2023-04-24T09:00:01;99136.06;;;10.20;81.36
69842;BME280;57138;51.326;-0.068;2023-04-24T09:02:27;99132.72;;;10.31;81.00
69842;BME280;57138;51.326;-0.068;2023-04-24T09:04:53;99142.09;;;10.54;81.37
69842;BME280;57138;51.326;-0.068;2023-04-24T09:07:19;99143.22;;;10.71;80.34
69842;BME280;57138;51.326;-0.068;2023-04-24T09:09:48;99150.38;;;10.77;79.54
69842;BME280;57138;51.326;-0.068;2023-04-24T09:12:14;99148.50;;;10.85;78.10
69842;BME280;57138;51.326;-0.068;2023-04-24T09:14:40;99148.81;;;10.95;77.67
69842;BME280;57138;51.326;-0.068;2023-04-24T09:17:10;99151.47;;;11.02;78.77
69842;BME280;57138;51.326;-0.068;2023-04-24T09:19:36;99156.13;;;11.06;76.49
69842;BME280;57138;51.326;-0.068;2023-04-24T09:22:06;99153.72;;;10.98;74.68
69842;BME280;57138;51.326;-0.068;2023-04-24T09:24:33;99154.94;;;11.02;76.79
69842;BME280;57138;51.326;-0.068;2023-04-24T09:27:01;99162.59;;;10.99;77.28
69842;BME280;57138;51.326;-0.068;2023-04-24T09:29:27;99162.38;;;11.00;78.35
69842;BME280;57138;51.326;-0.068;2023-04-24T09:31:52;99160.28;;;11.02;77.34
69842;BME280;57138;51.326;-0.068;2023-04-24T09:34:23;99156.13;;;11.06;76.45
69842;BME280;57138;51.326;-0.068;2023-04-24T09:36:49;99160.94;;;11.23;75.37
69842;BME280;57138;51.326;-0.068;2023-04-24T09:39:16;99158.91;;;11.43;75.02
69842;BME280;57138;51.326;-0.068;2023-04-24T09:41:47;99163.69;;;11.60;77.29
69842;BME280;57138;51.326;-0.068;2023-04-24T09:44:26;99165.78;;;11.76;76.73
69842;BME280;57138;51.326;-0.068;2023-04-24T09:46:54;99183.94;;;11.74;74.09
69842;BME280;57138;51.326;-0.068;2023-04-24T09:49:30;99184.03;;;11.67;74.23
69842;BME280;57138;51.326;-0.068;2023-04-24T09:52:07;99177.09;;;11.60;75.59
69842;BME280;57138;51.326;-0.068;2023-04-24T09:54:34;99190.63;;;11.65;69.18
69842;BME280;57138;51.326;-0.068;2023-04-24T09:57:02;99189.31;;;11.74;74.93
69842;BME280;57138;51.326;-0.068;2023-04-24T09:59:28;99183.13;;;11.74;74.99
69842;BME280;57138;51.326;-0.068;2023-04-24T10:01:54;99199.13;;;11.80;76.54
69842;BME280;57138;51.326;-0.068;2023-04-24T10:04:22;99207.75;;;11.82;75.50
69842;BME280;57138;51.326;-0.068;2023-04-24T10:06:50;99199.94;;;11.81;74.57
69842;BME280;57138;51.326;-0.068;2023-04-24T10:09:19;99200.38;;;11.78;74.87
69842;BME280;57138;51.326;-0.068;2023-04-24T10:11:48;99204.16;;;11.70;74.68
69842;BME280;57138;51.326;-0.068;2023-04-24T10:14:18;99202.16;;;11.65;75.12
69842;BME280;57138;51.326;-0.068;2023-04-24T10:16:45;99198.34;;;11.55;74.61
69842;BME280;57138;51.326;-0.068;2023-04-24T10:19:14;99205.63;;;11.47;74.17
69842;BME280;57138;51.326;-0.068;2023-04-24T10:21:41;99197.88;;;11.39;74.28
69842;BME280;57138;51.326;-0.068;2023-04-24T10:24:08;99201.94;;;11.42;72.21
69842;BME280;57138;51.326;-0.068;2023-04-24T10:26:35;99202.16;;;11.40;73.83
69842;BME280;57138;51.326;-0.068;2023-04-24T10:29:01;99209.94;;;11.48;73.43
69842;BME280;57138;51.326;-0.068;2023-04-24T10:31:27;99208.44;;;11.52;71.91
69842;BME280;57138;51.326;-0.068;2023-04-24T10:33:56;99201.19;;;11.60;73.56
69842;BME280;57138;51.326;-0.068;2023-04-24T10:36:26;99217.50;;;11.77;73.03
69842;BME280;57138;51.326;-0.068;2023-04-24T10:38:55;99206.78;;;11.77;72.28
69842;BME280;57138;51.326;-0.068;2023-04-24T10:41:26;99211.84;;;11.85;71.54
69842;BME280;57138;51.326;-0.068;2023-04-24T10:44:06;99210.59;;;11.87;71.29
69842;BME280;57138;51.326;-0.068;2023-04-24T10:46:32;99212.22;;;11.88;69.97
69842;BME280;57138;51.326;-0.068;2023-04-24T10:48:57;99207.56;;;12.02;70.14
69842;BME280;57138;51.326;-0.068;2023-04-24T10:51:43;99201.53;;;12.26;69.35
69842;BME280;57138;51.326;-0.068;2023-04-24T10:54:29;99205.03;;;12.45;66.75
69842;BME280;57138;51.326;-0.068;2023-04-24T10:59:48;99198.69;;;12.57;66.28
69842;BME280;57138;51.326;-0.068;2023-04-24T11:02:14;99207.78;;;12.56;67.48
69842;BME280;57138;51.326;-0.068;2023-04-24T11:04:41;99201.22;;;12.52;65.98
69842;BME280;57138;51.326;-0.068;2023-04-24T11:07:09;99210.09;;;12.53;66.88
69842;BME280;57138;51.326;-0.068;2023-04-24T11:09:35;99213.59;;;12.53;66.93
69842;BME280;57138;51.326;-0.068;2023-04-24T11:12:08;99218.50;;;12.56;67.97
69842;BME280;57138;51.326;-0.068;2023-04-24T11:17:35;99211.47;;;12.55;64.85
69842;BME280;57138;51.326;-0.068;2023-04-24T11:20:10;99211.00;;;12.47;65.24
69842;BME280;57138;51.326;-0.068;2023-04-24T11:22:38;99220.06;;;12.46;65.18
69842;BME280;57138;51.326;-0.068;2023-04-24T11:25:06;99212.38;;;12.49;65.88
69842;BME280;57138;51.326;-0.068;2023-04-24T11:27:42;99221.41;;;12.55;64.22
69842;BME280;57138;51.326;-0.068;2023-04-24T11:30:10;99221.03;;;12.51;63.70
69842;BME280;57138;51.326;-0.068;2023-04-24T11:32:40;99224.75;;;12.50;64.36
69842;BME280;57138;51.326;-0.068;2023-04-24T11:35:20;99221.94;;;12.45;64.40
69842;BME280;57138;51.326;-0.068;2023-04-24T11:37:52;99215.38;;;12.41;63.89
69842;BME280;57138;51.326;-0.068;2023-04-24T11:40:19;99217.03;;;12.42;65.14
69842;BME280;57138;51.326;-0.068;2023-04-24T11:42:46;99223.56;;;12.46;65.52
69842;BME280;57138;51.326;-0.068;2023-04-24T11:45:16;99227.66;;;12.49;64.51
69842;BME280;57138;51.326;-0.068;2023-04-24T11:47:42;99221.03;;;12.51;64.76
69842;BME280;57138;51.326;-0.068;2023-04-24T11:50:10;99225.13;;;12.54;64.11
69842;BME280;57138;51.326;-0.068;2023-04-24T11:52:41;99223.28;;;12.54;64.58
69842;BME280;57138;51.326;-0.068;2023-04-24T11:55:28;99228.19;;;12.57;64.21
69842;BME280;57138;51.326;-0.068;2023-04-24T11:57:58;99224.22;;;12.60;64.71
69842;BME280;57138;51.326;-0.068;2023-04-24T12:00:29;99225.06;;;12.61;63.03
69842;BME280;57138;51.326;-0.068;2023-04-24T12:03:10;99226.31;;;12.58;61.83
69842;BME280;57138;51.326;-0.068;2023-04-24T12:05:36;99221.84;;;12.52;61.85
69842;BME280;57138;51.326;-0.068;2023-04-24T12:08:01;99221.94;;;12.45;62.42
69842;BME280;57138;51.326;-0.068;2023-04-24T12:10:29;99215.97;;;12.43;62.70
69842;BME280;57138;51.326;-0.068;2023-04-24T12:12:56;99208.78;;;12.44;62.22
69842;BME280;57138;51.326;-0.068;2023-04-24T12:15:22;99208.66;;;12.69;61.27
69842;BME280;57138;51.326;-0.068;2023-04-24T12:17:54;99217.69;;;12.86;59.47
69842;BME280;57138;51.326;-0.068;2023-04-24T12:20:31;99209.19;;;12.89;61.67
69842;BME280;57138;51.326;-0.068;2023-04-24T12:22:59;99217.22;;;12.89;60.35
69842;BME280;57138;51.326;-0.068;2023-04-24T12:25:28;99228.41;;;12.86;59.86
69842;BME280;57138;51.326;-0.068;2023-04-24T12:28:14;99217.78;;;12.80;60.58
69842;BME280;57138;51.326;-0.068;2023-04-24T12:30:41;99205.41;;;12.79;61.26
69842;BME280;57138;51.326;-0.068;2023-04-24T12:33:09;99206.38;;;12.84;60.48
69842;BME280;57138;51.326;-0.068;2023-04-24T12:35:34;99209.00;;;13.03;59.95
69842;BME280;57138;51.326;-0.068;2023-04-24T12:38:08;99203.53;;;13.21;59.29
69842;BME280;57138;51.326;-0.068;2023-04-24T12:40:34;99206.16;;;13.40;58.35
69842;BME280;57138;51.326;-0.068;2023-04-24T12:42:59;99195.19;;;13.53;57.77
69842;BME280;57138;51.326;-0.068;2023-04-24T12:45:25;99196.38;;;13.81;58.83
69842;BME280;57138;51.326;-0.068;2023-04-24T12:47:53;99192.69;;;14.11;57.18
69842;BME280;57138;51.326;-0.068;2023-04-24T12:50:19;99195.47;;;14.28;55.67
69842;BME280;57138;51.326;-0.068;2023-04-24T12:52:45;99189.56;;;14.43;57.42
69842;BME280;57138;51.326;-0.068;2023-04-24T12:55:11;99191.19;;;14.55;55.49
69842;BME280;57138;51.326;-0.068;2023-04-24T12:57:39;99187.00;;;14.48;54.15
69842;BME280;57138;51.326;-0.068;2023-04-24T13:00:06;99184.09;;;14.37;55.40
69842;BME280;57138;51.326;-0.068;2023-04-24T13:02:32;99185.53;;;14.28;54.89